Time;durP1;ratioP1;P1;durP2;ratioP2;P2;SDS_P1;SDS_P2;PMS_P1;PMS_P2;Temp;Humidity;BMP_temperature;BMP_pressure;BME280_temperature;BME280_humidity;BME280_pressure;Samples;Min_cycle;Max_cycle;Signal;HPM_P1;HPM_P2
2023/08/28 00:01:34;;;;;;;;;;;;;;;;;;5088002;28;1310;-60
2023/08/28 00:03:59;;;;;;;;;;;;;;;;;;5087567;28;5014;-60
2023/08/28 00:06:25;;;;;;;;;;;;;;;;;;5085903;28;4558;-61
2023/08/28 00:08:50;;;;;;;;;;;;;;;;;;5077277;28;4969;-59
2023/08/28 00:11:15;;;;;;;;;;;;;;;;;;5063092;28;5081;-60
2023/08/28 00:13:41;;;;;;;;;;;;;;;;;;5067396;28;1270;-60
2023/08/28 00:16:06;;;;;;;;;;;;;;;;;;5073601;28;5091;-60
2023/08/28 00:18:31;;;;;;;;;;;;;;;;;;5065865;28;4997;-60
2023/08/28 00:20:56;;;;;;;;;;;;;;;;;;5068286;28;5316;-60
2023/08/28 00:23:22;;;;;;;;;;;;;;;;;;5065661;28;5082;-60
2023/08/28 00:25:47;;;;;;;;;;;;;;;;;;5063552;28;1583;-60
2023/08/28 00:28:12;;;;;;;;;;;;;;;;;;5065624;28;5059;-60
2023/08/28 00:30:37;;;;;;;;;;;;;;;;;;5045336;28;5083;-60
2023/08/28 00:33:03;;;;;;;;;;;;;;;;;;5079872;28;5500;-60
2023/08/28 00:35:28;;;;;;;;;;;;;;;;;;5065836;28;5052;-60
2023/08/28 00:37:54;;;;;;;;;;;;;;;;;;5083303;28;1917;-60
2023/08/28 00:40:19;;;;;;;;;;;;;;;;;;5067258;28;4882;-60
2023/08/28 00:42:44;;;;;;;;;;;;;;;;;;5067125;28;5111;-60
2023/08/28 00:45:09;;;;;;;;;;;;;;;;;;5051442;28;4515;-59
2023/08/28 00:47:35;;;;;;;;;;;;;;;;;;5067063;28;4472;-60
2023/08/28 00:50:00;;;;;;;;;;;;;;;;;;5066709;28;3305;-60
2023/08/28 00:52:25;;;;;;;;;;;;;;;;;;5068184;28;4984;-61
2023/08/28 00:54:50;;;;;;;;;;;;;;;;;;5063700;28;5364;-61
2023/08/28 00:57:16;;;;;;;;;;;;;;;;;;5075072;28;5036;-60
2023/08/28 00:59:42;;;;;;;;;;;;;;;;;;5084762;28;5132;-60
2023/08/28 01:02:07;;;;;;;;;;;;;;;;;;5085976;28;5071;-60
2023/08/28 01:04:32;;;;;;;;;;;;;;;;;;5102533;28;1096;-60
2023/08/28 01:07:04;;;;;;;;;;;;;;;;;;5096317;28;5262;-60
2023/08/28 01:09:48;;;;;;;;;;;;;;;;;;5096919;28;4975;-60
2023/08/28 01:12:19;;;;;;;;;;;;;;;;;;5097652;28;5051;-60
2023/08/28 01:14:47;;;;;;;;;;;;;;;;;;5081415;28;5157;-60
2023/08/28 01:17:12;;;;;;;;;;;;;;;;;;5099641;28;4634;-60
2023/08/28 01:19:38;;;;;;;;;;;;;;;;;;5095095;28;1171;-60
2023/08/28 01:22:10;;;;;;;;;;;;;;;;;;5097308;28;5090;-59
2023/08/28 01:24:36;;;;;;;;;;;;;;;;;;5092572;28;4437;-60
2023/08/28 01:27:01;;;;;;;;;;;;;;;;;;5089366;28;5008;-59
2023/08/28 01:29:26;;;;;;;;;;;;;;;;;;5099217;28;4825;-60
2023/08/28 01:31:51;;;;;;;;;;;;;;;;;;5098268;28;5100;-60
2023/08/28 01:34:17;;;;;;;;;;;;;;;;;;5096209;28;4989;-60
2023/08/28 01:36:48;;;;;;;;;;;;;;;;;;5099028;28;4687;-59
2023/08/28 01:39:22;;;;;;;;;;;;;;;;;;5085592;28;5224;-60
2023/08/28 01:41:47;;;;;;;;;;;;;;;;;;5090450;28;5102;-59
2023/08/28 01:44:12;;;;;;;;;;;;;;;;;;5091463;28;5144;-60
2023/08/28 01:46:38;;;;;;;;;;;;;;;;;;5077245;28;1463;-60
2023/08/28 01:49:03;;;;;;;;;;;;;;;;;;5079512;28;5128;-60
2023/08/28 01:51:28;;;;;;;;;;;;;;;;;;5100865;28;4424;-60
2023/08/28 01:53:53;;;;;;;;;;;;;;;;;;5100077;28;5029;-60
2023/08/28 01:56:19;;;;;;;;;;;;;;;;;;5067302;28;5137;-60
2023/08/28 01:58:51;;;;;;;;;;;;;;;;;;5070308;28;3294;-60
2023/08/28 02:01:16;;;;;;;;;;;;;;;;;;5074525;28;5052;-60
2023/08/28 02:03:41;;;;;;;;;;;;;;;;;;5075744;28;5180;-60
2023/08/28 02:06:07;;;;;;;;;;;;;;;;;;5083586;28;4614;-59
2023/08/28 02:08:32;;;;;;;;;;;;;;;;;;5087971;28;5010;-60
2023/08/28 02:10:57;;;;;;;;;;;;;;;;;;5076602;28;3291;-60
2023/08/28 02:13:23;;;;;;;;;;;;;;;;;;5072649;28;4985;-60
2023/08/28 02:15:48;;;;;;;;;;;;;;;;;;5071495;28;4953;-60
2023/08/28 02:18:13;;;;;;;;;;;;;;;;;;5075030;28;5018;-60
2023/08/28 02:20:38;;;;;;;;;;;;;;;;;;5080912;28;4636;-59
2023/08/28 02:23:04;;;;;;;;;;;;;;;;;;5064182;28;2159;-60
2023/08/28 02:25:29;;;;;;;;;;;;;;;;;;5054465;28;4791;-60
2023/08/28 02:27:54;;;;;;;;;;;;;;;;;;5057313;28;5011;-60
2023/08/28 02:30:19;;;;;;;;;;;;;;;;;;5059351;28;5031;-60
2023/08/28 02:32:44;;;;;;;;;;;;;;;;;;5058825;28;5086;-59
2023/08/28 02:35:11;;;;;;;;;;;;;;;;;;5055067;28;5355;-60
2023/08/28 02:37:37;;;;;;;;;;;;;;;;;;5059012;28;1905;-60
2023/08/28 02:40:03;;;;;;;;;;;;;;;;;;5056033;28;4437;-59
2023/08/28 02:42:28;;;;;;;;;;;;;;;;;;5057999;28;5052;-60
2023/08/28 02:44:54;;;;;;;;;;;;;;;;;;5058617;28;5045;-60
2023/08/28 02:47:19;;;;;;;;;;;;;;;;;;5062732;28;4957;-60
2023/08/28 02:49:44;;;;;;;;;;;;;;;;;;5062339;28;1486;-60
2023/08/28 02:52:09;;;;;;;;;;;;;;;;;;5053668;28;5105;-58
2023/08/28 02:54:34;;;;;;;;;;;;;;;;;;5062615;28;4859;-59
2023/08/28 02:57:00;;;;;;;;;;;;;;;;;;5069923;28;5016;-59
2023/08/28 02:59:27;;;;;;;;;;;;;;;;;;5076420;28;5093;-59
2023/08/28 03:01:52;;;;;;;;;;;;;;;;;;5080698;28;1158;-60
2023/08/28 03:04:17;;;;;;;;;;;;;;;;;;5080746;28;5062;-60
2023/08/28 03:06:42;;;;;;;;;;;;;;;;;;5076016;28;5161;-60
2023/08/28 03:09:08;;;;;;;;;;;;;;;;;;5086090;28;4638;-60
2023/08/28 03:11:33;;;;;;;;;;;;;;;;;;5083338;28;4979;-60
2023/08/28 03:13:59;;;;;;;;;;;;;;;;;;5076874;28;1351;-59
2023/08/28 03:16:24;;;;;;;;;;;;;;;;;;5082129;28;4577;-60
2023/08/28 03:18:49;;;;;;;;;;;;;;;;;;5079136;28;4962;-60
2023/08/28 03:21:14;;;;;;;;;;;;;;;;;;5071450;28;4589;-59
2023/08/28 03:23:40;;;;;;;;;;;;;;;;;;5069045;28;5037;-59
2023/08/28 03:26:05;;;;;;;;;;;;;;;;;;5076140;28;2241;-60
2023/08/28 03:28:30;;;;;;;;;;;;;;;;;;5068755;28;4341;-59
2023/08/28 03:30:56;;;;;;;;;;;;;;;;;;5074769;28;5054;-59
2023/08/28 03:33:22;;;;;;;;;;;;;;;;;;5071266;28;5539;-59
2023/08/28 03:35:47;;;;;;;;;;;;;;;;;;5074161;28;4487;-59
2023/08/28 03:38:13;;;;;;;;;;;;;;;;;;5068968;28;5266;-59
2023/08/28 03:40:38;;;;;;;;;;;;;;;;;;5077879;28;1367;-59
2023/08/28 03:43:04;;;;;;;;;;;;;;;;;;5069517;28;4939;-60
2023/08/28 03:45:29;;;;;;;;;;;;;;;;;;5075108;28;4626;-60
2023/08/28 03:47:54;;;;;;;;;;;;;;;;;;5068315;28;4839;-60
2023/08/28 03:50:19;;;;;;;;;;;;;;;;;;5067096;28;4713;-59
2023/08/28 03:52:45;;;;;;;;;;;;;;;;;;5076327;28;1200;-60
2023/08/28 03:55:10;;;;;;;;;;;;;;;;;;5071118;28;4946;-59
2023/08/28 03:57:36;;;;;;;;;;;;;;;;;;5061740;28;4850;-60
2023/08/28 04:00:05;;;;;;;;;;;;;;;;;;5067251;28;4911;-59
2023/08/28 04:02:30;;;;;;;;;;;;;;;;;;5056390;28;5106;-60
2023/08/28 04:04:56;;;;;;;;;;;;;;;;;;5068778;28;1232;-60
2023/08/28 04:07:22;;;;;;;;;;;;;;;;;;5066551;28;4686;-60
2023/08/28 04:09:47;;;;;;;;;;;;;;;;;;5070100;28;5004;-60
2023/08/28 04:12:12;;;;;;;;;;;;;;;;;;5067217;28;4666;-60
2023/08/28 04:14:38;;;;;;;;;;;;;;;;;;5062900;28;4948;-59
2023/08/28 04:17:03;;;;;;;;;;;;;;;;;;5068564;28;3335;-59
2023/08/28 04:19:28;;;;;;;;;;;;;;;;;;5068015;28;4930;-60
2023/08/28 04:21:53;;;;;;;;;;;;;;;;;;5071393;28;4433;-60
2023/08/28 04:24:19;;;;;;;;;;;;;;;;;;5066527;28;4955;-59
2023/08/28 04:26:44;;;;;;;;;;;;;;;;;;5066317;28;4949;-59
2023/08/28 04:29:09;;;;;;;;;;;;;;;;;;5063831;28;4665;-59
2023/08/28 04:31:34;;;;;;;;;;;;;;;;;;5065665;28;5296;-60
2023/08/28 04:34:00;;;;;;;;;;;;;;;;;;5067447;28;5064;-60
2023/08/28 04:36:25;;;;;;;;;;;;;;;;;;5069880;28;4449;-60
2023/08/28 04:38:50;;;;;;;;;;;;;;;;;;5066502;28;4984;-60
2023/08/28 04:41:15;;;;;;;;;;;;;;;;;;5063901;28;5034;-60
2023/08/28 04:43:41;;;;;;;;;;;;;;;;;;5066352;28;3339;-59
2023/08/28 04:46:06;;;;;;;;;;;;;;;;;;5065780;28;5055;-60
2023/08/28 04:48:31;;;;;;;;;;;;;;;;;;5066753;28;5060;-60
2023/08/28 04:50:56;;;;;;;;;;;;;;;;;;5065735;28;4996;-59
2023/08/28 04:53:22;;;;;;;;;;;;;;;;;;5066739;28;4841;-59
2023/08/28 04:55:47;;;;;;;;;;;;;;;;;;5066417;28;1258;-60
2023/08/28 04:58:12;;;;;;;;;;;;;;;;;;5058793;28;4960;-60
2023/08/28 05:00:38;;;;;;;;;;;;;;;;;;5066188;28;5151;-59
2023/08/28 05:03:03;;;;;;;;;;;;;;;;;;5057831;28;4741;-59
2023/08/28 05:05:28;;;;;;;;;;;;;;;;;;5046691;28;5049;-60
2023/08/28 05:07:54;;;;;;;;;;;;;;;;;;5046952;28;3241;-60
2023/08/28 05:10:19;;;;;;;;;;;;;;;;;;5065932;28;5021;-60
2023/08/28 05:12:44;;;;;;;;;;;;;;;;;;5048416;28;4470;-60
2023/08/28 05:15:09;;;;;;;;;;;;;;;;;;5046238;28;5162;-59
2023/08/28 05:17:35;;;;;;;;;;;;;;;;;;5047256;28;5110;-59
2023/08/28 05:20:00;;;;;;;;;;;;;;;;;;5053148;28;1347;-60
2023/08/28 05:22:25;;;;;;;;;;;;;;;;;;5046446;28;4977;-60
2023/08/28 05:24:51;;;;;;;;;;;;;;;;;;5056200;28;4617;-61
2023/08/28 05:27:16;;;;;;;;;;;;;;;;;;5061324;28;4981;-61
2023/08/28 05:29:43;;;;;;;;;;;;;;;;;;5061892;28;4989;-61
2023/08/28 05:32:08;;;;;;;;;;;;;;;;;;5061381;28;5295;-60
2023/08/28 05:34:33;;;;;;;;;;;;;;;;;;5047242;28;1148;-58
2023/08/28 05:36:59;;;;;;;;;;;;;;;;;;5048619;28;4857;-58
2023/08/28 05:39:24;;;;;;;;;;;;;;;;;;5046194;28;5147;-58
2023/08/28 05:41:49;;;;;;;;;;;;;;;;;;5047186;28;5051;-58
2023/08/28 05:44:15;;;;;;;;;;;;;;;;;;5068231;28;4844;-58
2023/08/28 05:46:40;;;;;;;;;;;;;;;;;;5064854;28;2365;-56
2023/08/28 05:49:07;;;;;;;;;;;;;;;;;;5048487;28;4894;-58
2023/08/28 05:51:32;;;;;;;;;;;;;;;;;;5061270;28;5104;-58
2023/08/28 05:53:57;;;;;;;;;;;;;;;;;;5068576;28;5004;-58
2023/08/28 05:56:22;;;;;;;;;;;;;;;;;;5081243;28;5042;-58
2023/08/28 05:58:48;;;;;;;;;;;;;;;;;;5092883;28;1921;-57
2023/08/28 06:01:13;;;;;;;;;;;;;;;;;;5087187;28;5259;-58
2023/08/28 06:03:38;;;;;;;;;;;;;;;;;;5088997;28;5120;-57
2023/08/28 06:06:04;;;;;;;;;;;;;;;;;;5087239;28;5107;-58
2023/08/28 06:08:29;;;;;;;;;;;;;;;;;;5099646;28;5596;-58
2023/08/28 06:10:54;;;;;;;;;;;;;;;;;;5098240;28;3259;-57
2023/08/28 06:13:19;;;;;;;;;;;;;;;;;;5102609;28;4649;-58
2023/08/28 06:15:45;;;;;;;;;;;;;;;;;;5089588;28;4622;-58
2023/08/28 06:18:10;;;;;;;;;;;;;;;;;;5090919;28;4696;-56
2023/08/28 06:20:35;;;;;;;;;;;;;;;;;;5091823;28;4680;-57
2023/08/28 06:23:01;;;;;;;;;;;;;;;;;;5090795;28;1124;-58
2023/08/28 06:25:26;;;;;;;;;;;;;;;;;;5092905;28;4945;-57
2023/08/28 06:27:51;;;;;;;;;;;;;;;;;;5098153;28;4450;-58
2023/08/28 06:30:16;;;;;;;;;;;;;;;;;;5096731;28;5097;-58
2023/08/28 06:32:42;;;;;;;;;;;;;;;;;;5098609;28;5213;-58
2023/08/28 06:35:07;;;;;;;;;;;;;;;;;;5098620;28;5195;-57
2023/08/28 06:37:32;;;;;;;;;;;;;;;;;;5099332;28;1910;-57
2023/08/28 06:39:58;;;;;;;;;;;;;;;;;;5087269;28;4898;-57
2023/08/28 06:42:23;;;;;;;;;;;;;;;;;;5096576;28;5229;-57
2023/08/28 06:44:48;;;;;;;;;;;;;;;;;;5097100;28;5152;-58
2023/08/28 06:47:14;;;;;;;;;;;;;;;;;;5099174;28;5023;-57
2023/08/28 06:49:39;;;;;;;;;;;;;;;;;;5101377;28;2297;-58
2023/08/28 06:52:04;;;;;;;;;;;;;;;;;;5104432;28;5167;-57
2023/08/28 06:54:30;;;;;;;;;;;;;;;;;;5098310;28;4858;-58
2023/08/28 06:56:55;;;;;;;;;;;;;;;;;;5087198;28;5179;-58
2023/08/28 06:59:20;;;;;;;;;;;;;;;;;;5092223;28;5260;-58
2023/08/28 07:01:45;;;;;;;;;;;;;;;;;;5097901;28;3310;-54
2023/08/28 07:04:11;;;;;;;;;;;;;;;;;;5102284;28;5095;-56
2023/08/28 07:06:36;;;;;;;;;;;;;;;;;;5099959;28;4738;-55
2023/08/28 07:09:01;;;;;;;;;;;;;;;;;;5100280;28;5045;-55
2023/08/28 07:11:26;;;;;;;;;;;;;;;;;;5082904;28;5064;-54
2023/08/28 07:13:53;;;;;;;;;;;;;;;;;;5094427;28;1099;-54
2023/08/28 07:16:18;;;;;;;;;;;;;;;;;;5087774;28;4873;-54
2023/08/28 07:18:43;;;;;;;;;;;;;;;;;;5088889;28;4658;-56
2023/08/28 07:21:08;;;;;;;;;;;;;;;;;;5089901;28;5020;-54
2023/08/28 07:23:36;;;;;;;;;;;;;;;;;;5099827;28;4952;-65
2023/08/28 07:26:02;;;;;;;;;;;;;;;;;;5076249;28;3292;-63
2023/08/28 07:28:28;;;;;;;;;;;;;;;;;;5087320;28;4344;-58
2023/08/28 07:30:55;;;;;;;;;;;;;;;;;;5083493;28;5044;-59
2023/08/28 07:33:20;;;;;;;;;;;;;;;;;;5096400;28;5305;-59
2023/08/28 07:35:46;;;;;;;;;;;;;;;;;;5089745;28;5053;-58
2023/08/28 07:38:13;;;;;;;;;;;;;;;;;;5094078;28;5029;-59
2023/08/28 07:40:38;;;;;;;;;;;;;;;;;;5069137;28;3221;-58
2023/08/28 07:43:04;;;;;;;;;;;;;;;;;;5091081;28;4571;-58
2023/08/28 07:45:29;;;;;;;;;;;;;;;;;;5092439;28;4421;-58
2023/08/28 07:47:55;;;;;;;;;;;;;;;;;;5087131;28;4585;-57
2023/08/28 07:50:21;;;;;;;;;;;;;;;;;;5091596;28;5183;-57
2023/08/28 07:52:46;;;;;;;;;;;;;;;;;;5098214;28;3098;-58
2023/08/28 07:55:11;;;;;;;;;;;;;;;;;;5084698;28;4981;-58
2023/08/28 07:57:37;;;;;;;;;;;;;;;;;;5055739;28;5013;-59
2023/08/28 08:00:06;;;;;;;;;;;;;;;;;;5066757;28;4933;-59
2023/08/28 08:02:32;;;;;;;;;;;;;;;;;;5061846;28;5033;-59
2023/08/28 08:04:57;;;;;;;;;;;;;;;;;;5060615;28;1116;-58
2023/08/28 08:07:23;;;;;;;;;;;;;;;;;;5065962;28;4859;-59
2023/08/28 08:09:48;;;;;;;;;;;;;;;;;;5065309;28;5053;-58
2023/08/28 08:12:13;;;;;;;;;;;;;;;;;;5061857;28;4976;-58
2023/08/28 08:14:38;;;;;;;;;;;;;;;;;;5051836;28;5010;-58
2023/08/28 08:17:04;;;;;;;;;;;;;;;;;;5063243;28;3655;-58
2023/08/28 08:19:29;;;;;;;;;;;;;;;;;;5046238;28;5056;-58
2023/08/28 08:21:54;;;;;;;;;;;;;;;;;;5057419;28;4430;-57
2023/08/28 08:24:19;;;;;;;;;;;;;;;;;;5036534;28;5110;-58
2023/08/28 08:26:45;;;;;;;;;;;;;;;;;;5047383;28;5039;-57
2023/08/28 08:29:10;;;;;;;;;;;;;;;;;;5059045;28;4864;-58
2023/08/28 08:31:36;;;;;;;;;;;;;;;;;;5064010;28;5135;-58
2023/08/28 08:34:02;;;;;;;;;;;;;;;;;;5066565;28;4968;-58
2023/08/28 08:36:27;;;;;;;;;;;;;;;;;;5065566;28;5053;-58
2023/08/28 08:38:53;;;;;;;;;;;;;;;;;;5066175;28;5075;-58
2023/08/28 08:41:18;;;;;;;;;;;;;;;;;;5059383;28;4579;-58
2023/08/28 08:43:43;;;;;;;;;;;;;;;;;;5064504;28;2214;-59
2023/08/28 08:46:08;;;;;;;;;;;;;;;;;;5066209;28;4573;-60
2023/08/28 08:48:36;;;;;;;;;;;;;;;;;;5065040;28;4880;-60
2023/08/28 08:51:04;;;;;;;;;;;;;;;;;;5050745;28;5016;-60
2023/08/28 08:53:35;;;;;;;;;;;;;;;;;;5050306;28;5108;-60
2023/08/28 08:56:01;;;;;;;;;;;;;;;;;;5070299;28;3277;-59
2023/08/28 08:58:26;;;;;;;;;;;;;;;;;;5077725;28;4512;-59
2023/08/28 09:00:51;;;;;;;;;;;;;;;;;;5057448;28;5102;-59
2023/08/28 09:03:17;;;;;;;;;;;;;;;;;;5071058;28;4543;-60
2023/08/28 09:05:43;;;;;;;;;;;;;;;;;;5079635;28;5111;-60
2023/08/28 09:08:08;;;;;;;;;;;;;;;;;;5067780;28;5485;-59
2023/08/28 09:10:34;;;;;;;;;;;;;;;;;;5085015;28;3069;-60
2023/08/28 09:12:59;;;;;;;;;;;;;;;;;;5071032;28;4983;-60
2023/08/28 09:15:24;;;;;;;;;;;;;;;;;;5063801;28;4459;-58
2023/08/28 09:17:50;;;;;;;;;;;;;;;;;;5074483;28;4461;-61
2023/08/28 09:20:16;;;;;;;;;;;;;;;;;;5087690;28;4502;-58
2023/08/28 09:22:45;;;;;;;;;;;;;;;;;;5051363;28;2325;-59
2023/08/28 09:25:11;;;;;;;;;;;;;;;;;;5060805;28;5062;-59
2023/08/28 09:27:41;;;;;;;;;;;;;;;;;;5066279;28;5394;-60
2023/08/28 09:30:07;;;;;;;;;;;;;;;;;;5067515;28;5253;-60
2023/08/28 09:32:32;;;;;;;;;;;;;;;;;;5066573;28;5097;-63
2023/08/28 09:34:57;;;;;;;;;;;;;;;;;;5068801;28;3297;-58
2023/08/28 09:37:22;;;;;;;;;;;;;;;;;;5066410;28;4889;-62
2023/08/28 09:39:54;;;;;;;;;;;;;;;;;;5061048;28;5118;-59
2023/08/28 09:42:20;;;;;;;;;;;;;;;;;;5079048;28;5002;-59
2023/08/28 09:44:49;;;;;;;;;;;;;;;;;;5065029;28;4928;-59
2023/08/28 09:47:19;;;;;;;;;;;;;;;;;;5068598;28;5059;-59
2023/08/28 09:49:44;;;;;;;;;;;;;;;;;;5069012;28;1262;-59
2023/08/28 09:52:09;;;;;;;;;;;;;;;;;;5072678;28;5014;-59
2023/08/28 09:54:35;;;;;;;;;;;;;;;;;;5064810;28;4870;-59
2023/08/28 09:57:00;;;;;;;;;;;;;;;;;;5070383;28;5100;-59
2023/08/28 09:59:25;;;;;;;;;;;;;;;;;;5068776;28;4483;-59
2023/08/28 10:01:51;;;;;;;;;;;;;;;;;;5034367;28;3225;-62
2023/08/28 10:04:16;;;;;;;;;;;;;;;;;;5063112;28;4525;-57
2023/08/28 10:06:49;;;;;;;;;;;;;;;;;;5079495;28;5124;-57
2023/08/28 10:09:18;;;;;;;;;;;;;;;;;;5072951;28;5138;-56
2023/08/28 10:11:45;;;;;;;;;;;;;;;;;;5070538;28;4944;-57
2023/08/28 10:14:10;;;;;;;;;;;;;;;;;;5066855;28;4922;-56
2023/08/28 10:16:42;;;;;;;;;;;;;;;;;;5073048;28;3146;-56
2023/08/28 10:19:13;;;;;;;;;;;;;;;;;;5071275;28;5118;-56
2023/08/28 10:21:38;;;;;;;;;;;;;;;;;;5072348;28;5134;-56
2023/08/28 10:24:03;;;;;;;;;;;;;;;;;;5086163;28;5068;-57
2023/08/28 10:26:29;;;;;;;;;;;;;;;;;;5080277;28;5219;-56
2023/08/28 10:28:54;;;;;;;;;;;;;;;;;;5072069;28;2206;-56
2023/08/28 10:31:19;;;;;;;;;;;;;;;;;;5073129;28;4983;-56
2023/08/28 10:33:44;;;;;;;;;;;;;;;;;;5083746;28;4647;-56
2023/08/28 10:36:10;;;;;;;;;;;;;;;;;;5065951;28;4977;-56
2023/08/28 10:38:35;;;;;;;;;;;;;;;;;;5069356;28;5108;-56
2023/08/28 10:41:00;;;;;;;;;;;;;;;;;;5097580;28;1224;-56
2023/08/28 10:43:26;;;;;;;;;;;;;;;;;;5082444;28;4990;-56
2023/08/28 10:45:51;;;;;;;;;;;;;;;;;;5077598;28;5119;-58
2023/08/28 10:48:17;;;;;;;;;;;;;;;;;;5083189;28;5115;-57
2023/08/28 10:50:42;;;;;;;;;;;;;;;;;;5076424;28;5014;-57
2023/08/28 10:53:07;;;;;;;;;;;;;;;;;;5077146;28;5010;-57
2023/08/28 10:55:34;;;;;;;;;;;;;;;;;;5075370;28;2312;-57
2023/08/28 10:58:00;;;;;;;;;;;;;;;;;;5100239;28;5208;-57
2023/08/28 11:00:25;;;;;;;;;;;;;;;;;;5099832;28;5065;-57
2023/08/28 11:03:09;;;;;;;;;;;;;;;;;;5095954;28;4469;-57
2023/08/28 11:05:36;;;;;;;;;;;;;;;;;;5094022;28;5080;-57
2023/08/28 11:08:04;;;;;;;;;;;;;;;;;;5099301;28;1150;-57
2023/08/28 11:10:30;;;;;;;;;;;;;;;;;;5087361;28;4399;-57
2023/08/28 11:12:57;;;;;;;;;;;;;;;;;;5104174;28;4944;-57
2023/08/28 11:15:26;;;;;;;;;;;;;;;;;;5080173;28;4665;-57
2023/08/28 11:18:11;;;;;;;;;;;;;;;;;;5097888;28;4505;-57
2023/08/28 11:20:37;;;;;;;;;;;;;;;;;;5099713;27;5157;-58
2023/08/28 11:23:02;;;;;;;;;;;;;;;;;;5071028;28;3145;-57
2023/08/28 11:25:37;;;;;;;;;;;;;;;;;;5071186;28;4520;-56
2023/08/28 11:28:03;;;;;;;;;;;;;;;;;;5073367;28;5066;-56
2023/08/28 11:30:29;;;;;;;;;;;;;;;;;;5079230;28;4944;-55
2023/08/28 11:32:55;;;;;;;;;;;;;;;;;;5077787;28;5506;-57
2023/08/28 11:35:20;;;;;;;;;;;;;;;;;;5062134;28;4414;-56
2023/08/28 11:37:46;;;;;;;;;;;;;;;;;;5075293;28;1926;-56
2023/08/28 11:40:15;;;;;;;;;;;;;;;;;;5077579;28;4995;-55
2023/08/28 11:42:42;;;;;;;;;;;;;;;;;;5098180;28;4977;-55
2023/08/28 11:45:07;;;;;;;;;;;;;;;;;;5069625;28;5081;-56
2023/08/28 11:47:32;;;;;;;;;;;;;;;;;;5077324;28;5127;-56
2023/08/28 11:49:59;;;;;;;;;;;;;;;;;;5077345;28;1255;-55
2023/08/28 11:52:24;;;;;;;;;;;;;;;;;;5067499;28;5111;-56
2023/08/28 11:54:49;;;;;;;;;;;;;;;;;;5089132;28;5109;-55
2023/08/28 11:57:16;;;;;;;;;;;;;;;;;;5066053;28;4988;-55
2023/08/28 11:59:41;;;;;;;;;;;;;;;;;;5062381;28;5133;-55
2023/08/28 12:02:08;;;;;;;;;;;;;;;;;;5050579;28;5031;-55
2023/08/28 12:04:36;;;;;;;;;;;;;;;;;;5062510;28;1175;-57
2023/08/28 12:07:02;;;;;;;;;;;;;;;;;;5063104;28;5007;-57
2023/08/28 12:09:28;;;;;;;;;;;;;;;;;;5066603;28;5124;-57
2023/08/28 12:11:53;;;;;;;;;;;;;;;;;;5063172;28;4950;-55
2023/08/28 12:14:20;;;;;;;;;;;;;;;;;;5066864;28;4978;-57
2023/08/28 12:16:45;;;;;;;;;;;;;;;;;;5067642;28;1238;-57
2023/08/28 12:19:11;;;;;;;;;;;;;;;;;;5067514;28;5011;-57
2023/08/28 12:21:36;;;;;;;;;;;;;;;;;;5065549;28;4907;-56
2023/08/28 12:24:02;;;;;;;;;;;;;;;;;;5065224;28;5103;-57
2023/08/28 12:26:30;;;;;;;;;;;;;;;;;;5062458;28;4804;-57
2023/08/28 12:28:55;;;;;;;;;;;;;;;;;;5061772;28;1673;-57
2023/08/28 12:31:27;;;;;;;;;;;;;;;;;;5080088;28;5327;-57
2023/08/28 12:33:53;;;;;;;;;;;;;;;;;;5066809;28;5035;-56
2023/08/28 12:36:18;;;;;;;;;;;;;;;;;;5081968;28;5167;-56
2023/08/28 12:38:47;;;;;;;;;;;;;;;;;;5066451;28;5063;-56
2023/08/28 12:41:13;;;;;;;;;;;;;;;;;;5066255;28;4652;-55
2023/08/28 12:43:38;;;;;;;;;;;;;;;;;;5067778;28;1124;-56
2023/08/28 12:46:03;;;;;;;;;;;;;;;;;;5068120;28;5105;-56
2023/08/28 12:48:28;;;;;;;;;;;;;;;;;;5070951;28;4449;-55
2023/08/28 12:50:54;;;;;;;;;;;;;;;;;;5070560;28;5102;-56
2023/08/28 12:53:20;;;;;;;;;;;;;;;;;;5066734;28;5181;-55
2023/08/28 12:55:45;;;;;;;;;;;;;;;;;;5077267;28;1432;-57
2023/08/28 12:58:10;;;;;;;;;;;;;;;;;;5072382;28;4648;-55
2023/08/28 13:00:35;;;;;;;;;;;;;;;;;;5098272;28;4862;-57
2023/08/28 13:03:01;;;;;;;;;;;;;;;;;;5083052;28;4868;-57
2023/08/28 13:05:26;;;;;;;;;;;;;;;;;;5070432;28;5017;-57
2023/08/28 13:07:51;;;;;;;;;;;;;;;;;;5068017;28;1101;-55
2023/08/28 13:10:16;;;;;;;;;;;;;;;;;;5070369;28;4791;-57
2023/08/28 13:12:42;;;;;;;;;;;;;;;;;;5070674;28;5031;-56
2023/08/28 13:15:07;;;;;;;;;;;;;;;;;;5070286;28;5004;-57
2023/08/28 13:17:32;;;;;;;;;;;;;;;;;;5073752;28;5130;-57
2023/08/28 13:19:58;;;;;;;;;;;;;;;;;;5090888;28;1985;-55
2023/08/28 13:22:23;;;;;;;;;;;;;;;;;;5085637;28;5089;-57
2023/08/28 13:24:48;;;;;;;;;;;;;;;;;;5087890;28;5106;-56
2023/08/28 13:27:13;;;;;;;;;;;;;;;;;;5084599;28;5086;-57
2023/08/28 13:29:38;;;;;;;;;;;;;;;;;;5087372;28;4853;-57
2023/08/28 13:32:05;;;;;;;;;;;;;;;;;;5088580;28;5303;-57
2023/08/28 13:34:30;;;;;;;;;;;;;;;;;;5090339;28;4793;-57
2023/08/28 13:36:55;;;;;;;;;;;;;;;;;;5085290;28;4975;-57
2023/08/28 13:39:21;;;;;;;;;;;;;;;;;;5089143;28;5073;-57
2023/08/28 13:41:48;;;;;;;;;;;;;;;;;;5089638;28;5227;-57
2023/08/28 13:44:13;;;;;;;;;;;;;;;;;;5089436;28;5081;-56
2023/08/28 13:46:41;;;;;;;;;;;;;;;;;;5090288;28;1143;-56
2023/08/28 13:49:06;;;;;;;;;;;;;;;;;;5104953;28;4559;-56
2023/08/28 13:51:31;;;;;;;;;;;;;;;;;;5085646;28;4714;-56
2023/08/28 13:53:56;;;;;;;;;;;;;;;;;;5088868;28;5496;-61
2023/08/28 13:56:22;;;;;;;;;;;;;;;;;;5095032;28;5023;-61
2023/08/28 13:58:47;;;;;;;;;;;;;;;;;;5092808;28;3345;-61
2023/08/28 14:01:13;;;;;;;;;;;;;;;;;;5090352;28;4924;-60
2023/08/28 14:03:38;;;;;;;;;;;;;;;;;;5085175;28;5362;-60
2023/08/28 14:06:03;;;;;;;;;;;;;;;;;;5099490;28;5124;-61
2023/08/28 14:08:29;;;;;;;;;;;;;;;;;;5080886;28;4995;-61
2023/08/28 14:10:54;;;;;;;;;;;;;;;;;;5096604;28;3087;-61
2023/08/28 14:13:20;;;;;;;;;;;;;;;;;;5082488;28;4628;-61
2023/08/28 14:15:51;;;;;;;;;;;;;;;;;;5098183;28;4441;-63
2023/08/28 14:18:19;;;;;;;;;;;;;;;;;;5082587;28;5341;-57
2023/08/28 14:20:49;;;;;;;;;;;;;;;;;;5091553;28;5017;-60
2023/08/28 14:23:15;;;;;;;;;;;;;;;;;;5091207;28;4523;-56
2023/08/28 14:25:40;;;;;;;;;;;;;;;;;;5090214;28;2306;-56
2023/08/28 14:28:05;;;;;;;;;;;;;;;;;;5099565;28;4989;-62
2023/08/28 14:30:30;;;;;;;;;;;;;;;;;;5098869;28;5230;-68
2023/08/28 14:32:56;;;;;;;;;;;;;;;;;;5088893;28;5228;-67
2023/08/28 14:35:21;;;;;;;;;;;;;;;;;;5093828;28;5130;-66
2023/08/28 14:37:46;;;;;;;;;;;;;;;;;;5083997;28;3083;-66
2023/08/28 14:40:11;;;;;;;;;;;;;;;;;;5093717;28;4965;-63
2023/08/28 14:42:37;;;;;;;;;;;;;;;;;;5086808;28;5092;-68
2023/08/28 14:45:02;;;;;;;;;;;;;;;;;;5102849;28;4938;-66
2023/08/28 14:47:27;;;;;;;;;;;;;;;;;;5088642;28;5002;-70
2023/08/28 14:49:52;;;;;;;;;;;;;;;;;;5094055;28;2238;-69
2023/08/28 14:52:18;;;;;;;;;;;;;;;;;;5096129;28;5130;-70
2023/08/28 14:54:43;;;;;;;;;;;;;;;;;;5099296;28;5203;-68
2023/08/28 14:57:08;;;;;;;;;;;;;;;;;;5066549;28;5107;-67
2023/08/28 14:59:35;;;;;;;;;;;;;;;;;;5067507;28;4977;-70
2023/08/28 15:02:01;;;;;;;;;;;;;;;;;;5068642;28;3315;-69
2023/08/28 15:04:26;;;;;;;;;;;;;;;;;;5063351;28;5184;-70
2023/08/28 15:06:51;;;;;;;;;;;;;;;;;;5063908;28;5051;-69
2023/08/28 15:09:17;;;;;;;;;;;;;;;;;;5064252;28;5115;-69
2023/08/28 15:11:42;;;;;;;;;;;;;;;;;;5066939;28;5116;-63
2023/08/28 15:14:07;;;;;;;;;;;;;;;;;;5050177;28;5538;-69
2023/08/28 15:16:32;;;;;;;;;;;;;;;;;;5057919;28;3275;-69
2023/08/28 15:18:58;;;;;;;;;;;;;;;;;;5066094;28;5085;-67
2023/08/28 15:21:23;;;;;;;;;;;;;;;;;;5046370;28;5163;-66
2023/08/28 15:23:48;;;;;;;;;;;;;;;;;;5054210;28;5079;-67
2023/08/28 15:26:15;;;;;;;;;;;;;;;;;;5049693;28;5111;-69
2023/08/28 15:28:41;;;;;;;;;;;;;;;;;;5043242;28;3585;-67
2023/08/28 15:31:06;;;;;;;;;;;;;;;;;;5050672;28;5222;-67
2023/08/28 15:33:31;;;;;;;;;;;;;;;;;;5046734;28;5142;-66
2023/08/28 15:35:57;;;;;;;;;;;;;;;;;;5048092;28;4526;-65
2023/08/28 15:38:22;;;;;;;;;;;;;;;;;;5047459;28;5072;-61
2023/08/28 15:40:47;;;;;;;;;;;;;;;;;;5066800;28;3294;-64
2023/08/28 15:43:13;;;;;;;;;;;;;;;;;;5059459;28;5186;-70
2023/08/28 15:45:41;;;;;;;;;;;;;;;;;;5060488;28;5043;-62
2023/08/28 15:48:06;;;;;;;;;;;;;;;;;;5062060;28;4567;-62
2023/08/28 15:50:32;;;;;;;;;;;;;;;;;;5058772;28;5183;-64
2023/08/28 15:52:57;;;;;;;;;;;;;;;;;;5060361;28;3409;-63
2023/08/28 15:55:22;;;;;;;;;;;;;;;;;;5064640;28;5066;-59
2023/08/28 15:57:48;;;;;;;;;;;;;;;;;;5064814;28;5066;-59
2023/08/28 16:00:13;;;;;;;;;;;;;;;;;;5064242;28;5098;-61
2023/08/28 16:02:38;;;;;;;;;;;;;;;;;;5063562;28;5110;-61
2023/08/28 16:05:05;;;;;;;;;;;;;;;;;;5060450;28;3383;-57
2023/08/28 16:07:30;;;;;;;;;;;;;;;;;;5065784;28;5012;-57
2023/08/28 16:09:55;;;;;;;;;;;;;;;;;;5059489;28;5181;-57
2023/08/28 16:12:20;;;;;;;;;;;;;;;;;;5056854;28;5160;-57
2023/08/28 16:14:46;;;;;;;;;;;;;;;;;;5065314;28;5112;-57
2023/08/28 16:17:11;;;;;;;;;;;;;;;;;;5065421;28;4790;-58
2023/08/28 16:19:36;;;;;;;;;;;;;;;;;;5067836;28;3362;-60
2023/08/28 16:22:01;;;;;;;;;;;;;;;;;;5076328;28;4977;-58
2023/08/28 16:24:27;;;;;;;;;;;;;;;;;;5079806;28;5250;-57
2023/08/28 16:26:52;;;;;;;;;;;;;;;;;;5081703;28;5012;-57
2023/08/28 16:29:17;;;;;;;;;;;;;;;;;;5079593;28;5006;-60
2023/08/28 16:31:42;;;;;;;;;;;;;;;;;;5075696;28;5265;-60
2023/08/28 16:34:08;;;;;;;;;;;;;;;;;;5078595;28;5204;-59
2023/08/28 16:36:33;;;;;;;;;;;;;;;;;;5080777;28;5036;-58
2023/08/28 16:38:59;;;;;;;;;;;;;;;;;;5076791;28;5100;-59
2023/08/28 16:41:24;;;;;;;;;;;;;;;;;;5079687;28;5081;-61
2023/08/28 16:43:49;;;;;;;;;;;;;;;;;;5076241;28;3952;-59
2023/08/28 16:46:14;;;;;;;;;;;;;;;;;;5083370;28;4573;-58
2023/08/28 16:48:40;;;;;;;;;;;;;;;;;;5077375;28;5232;-59
2023/08/28 16:51:09;;;;;;;;;;;;;;;;;;5096830;28;4851;-59
2023/08/28 16:53:34;;;;;;;;;;;;;;;;;;5079561;28;4678;-58